Time;durP1;ratioP1;P1;durP2;ratioP2;P2;SDS_P1;SDS_P2;PMS_P1;PMS_P2;Temp;Humidity;BMP_temperature;BMP_pressure;BME280_temperature;BME280_humidity;BME280_pressure;Samples;Min_cycle;Max_cycle;Signal;HPM_P1;HPM_P2
2021/12/24 00:01:42;;;;;;;14.00;9.17;;;-3275.90;75.20;;;;;;6369030;27;20197;-63
2021/12/24 00:04:43;;;;;;;16.00;10.03;;;-3275.90;74.80;;;;;;6334982;28;20226;-63
2021/12/24 00:07:44;;;;;;;13.23;7.97;;;-3275.90;75.30;;;;;;6352463;28;20274;-63
2021/12/24 00:10:48;;;;;;;11.90;7.90;;;-3276.00;75.00;;;;;;6351511;28;20296;-63
2021/12/24 00:13:51;;;;;;;21.93;13.50;;;-3276.00;75.20;;;;;;6351472;28;20206;-63
2021/12/24 00:16:55;;;;;;;23.13;12.10;;;-3276.00;74.60;;;;;;6351655;28;20247;-63
2021/12/24 00:36:06;;;;;;;14.43;9.97;;;-3276.00;75.10;;;;;;6365702;27;20197;-63
2021/12/24 00:39:07;;;;;;;15.37;9.57;;;-3275.90;75.90;;;;;;6343066;28;20204;-63
2021/12/24 00:42:09;;;;;;;17.37;10.93;;;-3276.00;75.90;;;;;;6332837;28;20219;-63
2021/12/24 00:45:10;;;;;;;18.73;10.03;;;-3276.00;75.60;;;;;;6343415;28;20253;-64
2021/12/24 00:48:14;;;;;;;14.60;9.30;;;-3276.00;75.60;;;;;;6351292;27;20193;-63
2021/12/24 00:51:23;;;;;;;13.87;8.97;;;-3276.10;75.30;;;;;;6354103;27;20297;-64
2021/12/24 00:57:46;;;;;;;16.63;9.23;;;-3276.10;75.10;;;;;;6328448;28;20198;-63
2021/12/24 01:00:47;;;;;;;9.80;6.03;;;-3276.00;75.20;;;;;;6345137;27;20263;-63
2021/12/24 01:03:48;;;;;;;13.03;9.10;;;-3276.00;75.10;;;;;;6328092;28;20196;-63
2021/12/24 01:06:49;;;;;;;12.13;8.77;;;-3276.00;74.90;;;;;;6333160;28;20193;-63
2021/12/24 01:09:49;;;;;;;14.03;7.70;;;-3276.00;74.40;;;;;;6325297;28;20327;-63
2021/12/24 01:12:50;;;;;;;19.27;11.43;;;-3275.90;75.00;;;;;;6333775;28;20216;-64
2021/12/24 01:15:58;;;;;;;15.83;10.17;;;-3275.90;75.00;;;;;;6315912;28;20184;-64
2021/12/24 01:19:33;;;;;;;11.60;7.73;;;-3275.90;75.90;;;;;;6318314;28;20169;-64
2021/12/24 01:26:10;;;;;;;14.90;9.07;;;-3275.80;75.60;;;;;;6352644;27;20209;-64
2021/12/24 01:29:35;;;;;;;15.10;9.07;;;-3275.90;75.10;;;;;;6349654;28;20201;-63
2021/12/24 01:45:45;;;;;;;14.00;8.77;;;-3275.80;75.70;;;;;;6328017;28;20193;-63
2021/12/24 01:48:45;;;;;;;14.17;8.40;;;-3276.00;75.00;;;;;;6361016;27;20669;-64
2021/12/24 01:51:47;;;;;;;13.97;8.03;;;-3275.90;75.10;;;;;;6355808;27;20215;-64
2021/12/24 01:54:48;;;;;;;11.80;6.93;;;-3275.90;75.20;;;;;;6349668;28;20199;-64
2021/12/24 01:57:50;;;;;;;11.00;6.63;;;-3276.00;74.90;;;;;;6349532;28;20231;-64
2021/12/24 02:00:55;;;;;;;11.33;6.67;;;-3276.00;74.80;;;;;;6366364;27;20196;-64
2021/12/24 02:03:56;;;;;;;9.87;6.10;;;-3276.00;73.90;;;;;;6366572;27;20196;-64
2021/12/24 02:06:57;;;;;;;8.63;6.30;;;-3276.00;74.30;;;;;;6327747;28;20192;-64
2021/12/24 02:09:58;;;;;;;10.00;6.17;;;-3276.00;74.30;;;;;;6351055;27;20232;-64
2021/12/24 02:12:59;;;;;;;12.17;7.00;;;-3276.00;74.60;;;;;;6352102;27;20212;-64
2021/12/24 02:16:21;;;;;;;11.50;8.00;;;-3275.90;74.40;;;;;;6341304;28;20192;-64
2021/12/24 02:29:20;;;;;;;10.33;6.07;;;-3275.90;74.60;;;;;;6343414;28;20192;-63
2021/12/24 02:32:21;;;;;;;10.20;6.53;;;-3275.80;75.60;;;;;;6365248;27;20215;-63
2021/12/24 02:35:22;;;;;;;8.70;5.93;;;-3275.80;75.10;;;;;;6366163;27;20184;-63
2021/12/24 02:38:24;;;;;;;7.77;5.30;;;-3275.90;75.30;;;;;;6349527;28;20195;-64
2021/12/24 02:41:25;;;;;;;10.17;6.50;;;-3275.90;75.00;;;;;;6346966;28;20191;-64
2021/12/24 02:44:26;;;;;;;9.10;5.33;;;-3275.90;75.40;;;;;;6347183;28;20208;-64
2021/12/24 02:47:57;;;;;;;8.70;5.87;;;-3275.90;75.40;;;;;;6338358;28;20216;-64
2021/12/24 02:54:17;;;;;;;6.53;4.50;;;-3276.00;75.20;;;;;;6348558;28;20234;-64
2021/12/24 02:57:22;;;;;;;11.07;6.20;;;-3276.00;75.40;;;;;;6381478;27;20190;-64
2021/12/24 03:00:26;;;;;;;7.67;5.23;;;-3276.10;75.10;;;;;;6347515;28;20197;-64
2021/12/24 03:03:28;;;;;;;11.20;5.23;;;-3276.20;74.20;;;;;;6328001;28;20195;-63
2021/12/24 03:06:39;;;;;;;9.20;6.37;;;-3276.20;74.10;;;;;;6348328;28;20184;-64
2021/12/24 03:09:39;;;;;;;8.03;5.83;;;-3276.20;73.20;;;;;;6364970;28;20390;-64
2021/12/24 03:12:43;;;;;;;8.03;5.43;;;-3276.10;74.00;;;;;;6362332;27;20232;-64
2021/12/24 03:15:47;;;;;;;10.73;6.17;;;-3276.10;74.10;;;;;;6330867;28;20189;-64
2021/12/24 03:18:49;;;;;;;8.43;5.57;;;-3276.00;74.10;;;;;;6366149;27;20187;-64
2021/12/24 03:21:57;;;;;;;8.23;6.00;;;-3276.00;74.20;;;;;;6352358;27;20193;-64
2021/12/24 03:24:58;;;;;;;8.37;5.80;;;-3276.00;74.90;;;;;;6323773;28;20182;-64
2021/12/24 03:27:58;;;;;;;9.93;6.20;;;-3276.00;75.50;;;;;;6299160;28;20200;-63
2021/12/24 03:31:00;;;;;;;12.10;5.97;;;-3276.00;75.20;;;;;;6306235;28;20185;-63
2021/12/24 03:34:01;;;;;;;9.57;5.60;;;-3276.00;74.40;;;;;;6322800;28;20213;-63
2021/12/24 03:37:04;;;;;;;6.60;4.60;;;-3276.00;75.00;;;;;;6323239;28;20204;-62
2021/12/24 03:40:07;;;;;;;9.40;5.00;;;-3276.10;74.90;;;;;;6335411;28;20188;-62
2021/12/24 03:43:08;;;;;;;8.70;6.07;;;-3276.10;74.40;;;;;;6357984;27;20202;-61
2021/12/24 03:46:14;;;;;;;7.27;5.07;;;-3276.10;74.10;;;;;;6310428;28;20196;-62
2021/12/24 03:49:29;;;;;;;6.50;4.90;;;-3276.10;74.20;;;;;;6311328;28;20297;-62
2021/12/24 03:55:33;;;;;;;10.53;5.00;;;-3276.20;74.00;;;;;;6344252;27;20193;-62
2021/12/24 03:58:34;;;;;;;8.40;5.40;;;-3276.20;73.30;;;;;;6335124;27;20184;-62
2021/12/24 04:02:07;;;;;;;8.27;5.30;;;-3276.20;73.80;;;;;;6327044;28;20207;-64
2021/12/24 04:05:11;;;;;;;11.13;5.20;;;-3276.20;73.70;;;;;;6344286;28;20169;-62
2021/12/24 04:08:31;;;;;;;9.07;5.40;;;-3276.10;74.10;;;;;;6352827;28;20185;-61
2021/12/24 04:11:48;;;;;;;7.87;4.43;;;-3276.10;74.20;;;;;;6371182;27;20237;-62
2021/12/24 04:14:52;;;;;;;8.10;4.80;;;-3276.00;74.10;;;;;;6334573;28;20188;-62
2021/12/24 04:17:53;;;;;;;5.87;4.53;;;-3276.00;74.30;;;;;;6383818;27;20260;-62
2021/12/24 04:27:33;;;;;;;7.90;4.80;;;-3276.00;74.50;;;;;;6334550;28;20236;-61
2021/12/24 04:30:43;;;;;;;7.47;5.17;;;-3276.00;74.30;;;;;;6326515;28;20233;-61
2021/12/24 04:33:47;;;;;;;6.90;4.50;;;-3276.00;74.80;;;;;;6341984;28;20216;-62
2021/12/24 05:03:36;;;;;;;9.07;5.23;;;-3275.90;75.30;;;;;;6345551;27;20200;-64
2021/12/24 05:06:47;;;;;;;7.70;5.00;;;-3275.90;75.40;;;;;;6359853;27;20184;-64
2021/12/24 05:09:48;;;;;;;7.90;5.00;;;-3275.90;75.60;;;;;;6315893;28;20246;-64
2021/12/24 05:12:50;;;;;;;6.93;4.93;;;-3275.80;76.00;;;;;;6350697;27;20345;-64
2021/12/24 05:16:01;;;;;;;7.20;4.90;;;-3275.90;76.00;;;;;;6350935;28;20188;-64
2021/12/24 05:23:02;;;;;;;7.90;5.17;;;-3275.90;75.60;;;;;;6345472;28;20188;-65
2021/12/24 05:26:03;;;;;;;10.77;5.17;;;-3276.00;75.50;;;;;;6357407;27;20288;-64
2021/12/24 05:29:04;;;;;;;6.63;4.43;;;-3276.00;75.60;;;;;;6349084;28;20201;-64
2021/12/24 05:32:07;;;;;;;9.40;4.67;;;-3276.00;75.50;;;;;;6336446;28;20208;-65
2021/12/24 05:35:08;;;;;;;8.30;4.43;;;-3276.10;75.40;;;;;;6369670;27;20291;-65
2021/12/24 05:38:13;;;;;;;7.83;4.77;;;-3276.00;75.50;;;;;;6359617;27;20191;-65
2021/12/24 05:41:15;;;;;;;9.63;5.27;;;-3276.10;75.50;;;;;;6366714;27;20194;-65
2021/12/24 05:44:17;;;;;;;7.60;5.17;;;-3276.10;75.30;;;;;;6320224;28;20201;-64
2021/12/24 05:47:20;;;;;;;6.60;4.43;;;-3276.00;75.80;;;;;;6313051;28;20204;-65
2021/12/24 05:50:24;;;;;;;5.93;4.27;;;-3276.10;75.50;;;;;;6309924;28;20276;-64
2021/12/24 05:53:48;;;;;;;6.73;4.07;;;-3276.20;75.40;;;;;;6302631;28;20233;-65
2021/12/24 05:56:54;;;;;;;13.20;5.90;;;-3276.20;75.20;;;;;;6362989;27;20203;-65
2021/12/24 05:59:55;;;;;;;8.40;4.57;;;-3276.20;75.50;;;;;;6349210;28;20188;-65
2021/12/24 06:02:56;;;;;;;8.33;4.37;;;-3276.20;75.40;;;;;;6348561;28;20194;-65
2021/12/24 06:05:57;;;;;;;8.43;5.07;;;-3276.20;75.30;;;;;;6349250;28;20198;-65
2021/12/24 06:08:57;;;;;;;5.77;4.57;;;-3276.20;75.50;;;;;;6362547;27;20279;-65
2021/12/24 06:11:58;;;;;;;7.57;4.30;;;-3276.20;75.50;;;;;;6371083;27;20231;-65
2021/12/24 06:15:04;;;;;;;8.63;5.00;;;-3276.30;75.20;;;;;;6346343;27;20189;-65
2021/12/24 06:18:11;;;;;;;8.37;4.43;;;-3276.30;75.10;;;;;;6344907;27;20197;-65
2021/12/24 06:21:13;;;;;;;7.73;4.20;;;-3276.40;75.50;;;;;;6347101;27;20203;-65
2021/12/24 06:24:14;;;;;;;7.57;5.27;;;-3276.40;75.20;;;;;;6323728;28;20233;-66
2021/12/24 06:27:15;;;;;;;7.77;5.33;;;-3276.30;75.70;;;;;;6352438;27;20194;-65
2021/12/24 06:30:16;;;;;;;11.43;5.70;;;-3276.30;75.90;;;;;;6363317;27;20204;-65
2021/12/24 06:33:17;;;;;;;8.70;5.77;;;-3276.40;75.60;;;;;;6354319;27;20220;-65
2021/12/24 06:36:17;;;;;;;9.23;5.37;;;-3276.40;75.70;;;;;;6313373;28;20193;-65
2021/12/24 06:39:18;;;;;;;7.80;4.53;;;-3276.50;75.60;;;;;;6323941;28;20228;-65
2021/12/24 06:42:19;;;;;;;8.17;4.83;;;-3276.50;75.90;;;;;;6348568;27;20210;-65
2021/12/24 06:45:24;;;;;;;12.60;6.20;;;-3276.50;75.70;;;;;;6328472;28;20231;-65
2021/12/24 06:48:25;;;;;;;11.30;7.63;;;-3276.60;75.10;;;;;;6333001;28;20196;-66
2021/12/24 06:51:27;;;;;;;9.07;5.53;;;-3276.70;75.30;;;;;;6330033;28;20277;-65
2021/12/24 06:54:29;;;;;;;14.33;7.63;;;-3276.70;75.10;;;;;;6323621;28;20289;-66
2021/12/24 06:57:35;;;;;;;10.17;5.80;;;-3276.70;75.20;;;;;;6316879;28;20207;-66
2021/12/24 07:00:36;;;;;;;10.27;6.87;;;-3276.70;75.50;;;;;;6353326;27;20202;-65
2021/12/24 07:03:41;;;;;;;13.93;6.87;;;0.00;75.40;;;;;;6336714;28;20197;-66
2021/12/24 07:06:45;;;;;;;11.77;7.17;;;0.00;75.50;;;;;;6325077;28;20246;-65
2021/12/24 07:09:46;;;;;;;15.23;6.63;;;0.00;75.20;;;;;;6332333;28;20380;-66
2021/12/24 07:12:47;;;;;;;10.27;6.23;;;-3276.70;75.40;;;;;;6342419;28;20225;-65
2021/12/24 07:15:49;;;;;;;12.17;6.60;;;-3276.70;76.00;;;;;;6372152;27;20189;-64
2021/12/24 07:18:49;;;;;;;6.43;4.77;;;-3276.70;75.70;;;;;;6360720;27;20195;-65
2021/12/24 07:21:50;;;;;;;7.33;4.57;;;-3276.70;76.10;;;;;;6363019;27;20199;-64
2021/12/24 07:24:51;;;;;;;6.87;4.83;;;0.00;75.80;;;;;;6364019;27;20250;-65
2021/12/24 07:27:52;;;;;;;7.10;4.87;;;0.00;76.30;;;;;;6348074;28;20227;-65
2021/12/24 07:30:53;;;;;;;8.20;5.77;;;0.10;75.90;;;;;;6360919;27;20202;-65
2021/12/24 07:33:54;;;;;;;8.00;4.80;;;0.10;75.80;;;;;;6371583;27;20307;-67
2021/12/24 07:36:55;;;;;;;8.97;5.63;;;0.10;76.10;;;;;;6327260;27;20191;-68
2021/12/24 07:39:56;;;;;;;7.17;5.50;;;0.10;75.70;;;;;;6364116;27;20203;-66
2021/12/24 07:42:57;;;;;;;8.23;5.33;;;0.10;76.20;;;;;;6344033;28;20217;-67
2021/12/24 07:45:58;;;;;;;6.77;4.60;;;0.20;76.00;;;;;;6349690;27;20230;-64
2021/12/24 07:49:12;;;;;;;7.20;4.50;;;0.30;75.60;;;;;;6326503;28;20196;-65
2021/12/24 07:52:14;;;;;;;8.33;5.77;;;0.40;75.50;;;;;;6340204;28;20212;-65
2021/12/24 07:55:15;;;;;;;7.07;5.17;;;0.50;75.40;;;;;;6362083;27;20219;-68
2021/12/24 07:58:17;;;;;;;9.03;4.40;;;0.50;75.40;;;;;;6355649;27;20275;-68
2021/12/24 08:01:18;;;;;;;9.03;4.83;;;0.70;75.10;;;;;;6352952;27;20243;-69
2021/12/24 08:04:20;;;;;;;6.20;4.73;;;0.70;74.90;;;;;;6366832;27;20196;-68
2021/12/24 08:07:21;;;;;;;8.17;4.40;;;0.80;74.90;;;;;;6358971;27;20201;-68
2021/12/24 08:10:27;;;;;;;8.00;4.77;;;0.80;75.10;;;;;;6347579;28;20289;-68
2021/12/24 08:13:28;;;;;;;9.40;4.70;;;0.90;75.00;;;;;;6327183;28;20252;-68
2021/12/24 08:16:29;;;;;;;6.90;4.80;;;0.90;74.90;;;;;;6324848;28;20251;-68
2021/12/24 08:19:30;;;;;;;5.77;4.50;;;0.90;75.10;;;;;;6328482;28;20198;-68
2021/12/24 08:22:31;;;;;;;6.30;4.23;;;1.00;75.30;;;;;;6330140;28;20271;-69
2021/12/24 08:25:33;;;;;;;4.57;3.57;;;1.00;74.70;;;;;;6342143;27;20196;-69
2021/12/24 08:28:33;;;;;;;6.40;4.40;;;1.00;75.40;;;;;;6340266;28;20257;-69
2021/12/24 08:31:34;;;;;;;8.70;5.50;;;1.10;75.10;;;;;;6345834;28;20195;-69
2021/12/24 08:34:35;;;;;;;7.73;5.37;;;1.20;75.30;;;;;;6343139;28;20243;-69
2021/12/24 08:37:36;;;;;;;7.70;5.20;;;1.30;75.00;;;;;;6341287;28;20191;-68
2021/12/24 08:40:37;;;;;;;7.07;4.83;;;1.30;74.60;;;;;;6351352;28;20235;-70
2021/12/24 08:43:38;;;;;;;9.87;5.43;;;1.30;74.80;;;;;;6349012;27;20297;-69
2021/12/24 08:46:39;;;;;;;7.53;4.53;;;1.40;74.90;;;;;;6307962;28;20203;-70
2021/12/24 08:49:40;;;;;;;7.27;5.10;;;1.50;74.80;;;;;;6368120;27;20303;-70
2021/12/24 08:52:43;;;;;;;7.77;5.20;;;1.60;74.40;;;;;;6331074;28;20220;-70
2021/12/24 08:55:44;;;;;;;9.53;5.30;;;1.70;74.80;;;;;;6381793;27;20191;-69
2021/12/24 08:58:45;;;;;;;9.83;5.60;;;1.90;74.00;;;;;;6348195;27;20249;-67
2021/12/24 09:01:46;;;;;;;10.87;7.20;;;1.80;72.90;;;;;;6308601;28;20671;-68
2021/12/24 09:04:46;;;;;;;7.60;5.93;;;1.90;73.20;;;;;;6342093;28;20192;-69
2021/12/24 09:07:47;;;;;;;8.83;5.97;;;2.00;73.00;;;;;;6311940;28;20195;-69
2021/12/24 09:10:48;;;;;;;14.20;8.40;;;2.00;73.50;;;;;;6324038;28;20258;-68
2021/12/24 09:13:49;;;;;;;14.17;7.67;;;2.10;73.10;;;;;;6366789;27;20220;-67
2021/12/24 09:16:50;;;;;;;11.43;7.03;;;2.10;73.00;;;;;;6319819;28;20245;-68
2021/12/24 09:19:52;;;;;;;11.67;8.67;;;2.20;72.60;;;;;;6324563;28;20202;-68
2021/12/24 09:22:55;;;;;;;13.20;8.50;;;2.20;72.80;;;;;;6309833;28;20200;-68
2021/12/24 09:25:56;;;;;;;11.07;7.00;;;2.30;72.10;;;;;;6344631;27;20197;-69
2021/12/24 09:28:57;;;;;;;10.70;7.70;;;2.20;72.10;;;;;;6345315;27;20192;-69
2021/12/24 09:31:57;;;;;;;11.37;7.73;;;2.30;72.40;;;;;;6359342;27;20244;-70
2021/12/24 09:34:58;;;;;;;10.17;6.73;;;2.40;72.10;;;;;;6359176;27;20253;-70
2021/12/24 09:38:00;;;;;;;9.80;6.60;;;2.40;72.80;;;;;;6364582;27;20208;-70
2021/12/24 09:41:01;;;;;;;7.97;5.63;;;2.50;72.50;;;;;;6344994;27;20195;-70
2021/12/24 09:44:03;;;;;;;10.80;7.63;;;2.70;72.30;;;;;;6327716;28;20274;-70
2021/12/24 09:47:04;;;;;;;11.53;7.63;;;2.80;71.90;;;;;;6331359;28;20200;-69
2021/12/24 09:50:07;;;;;;;8.90;6.70;;;2.90;71.20;;;;;;6342940;27;20299;-69
2021/12/24 09:53:08;;;;;;;12.30;7.73;;;3.00;71.10;;;;;;6320081;28;20224;-69
2021/12/24 09:56:09;;;;;;;8.33;6.20;;;3.10;71.00;;;;;;6365520;27;20222;-69
2021/12/24 09:59:09;;;;;;;13.97;8.03;;;3.20;70.40;;;;;;6350493;27;20187;-66
2021/12/24 10:02:26;;;;;;;8.77;6.43;;;3.20;70.90;;;;;;6366257;27;20192;-67
2021/12/24 10:05:38;;;;;;;8.93;6.23;;;3.30;70.00;;;;;;6368231;27;20203;-68
2021/12/24 10:08:39;;;;;;;10.47;6.23;;;3.40;69.60;;;;;;6348537;28;20196;-66
2021/12/24 10:11:48;;;;;;;9.23;6.47;;;3.60;69.60;;;;;;6348664;28;20239;-68
2021/12/24 10:14:57;;;;;;;10.33;6.30;;;3.70;69.10;;;;;;6335101;28;20246;-67
2021/12/24 10:17:58;;;;;;;12.53;8.33;;;3.80;68.50;;;;;;6341193;27;20204;-68
2021/12/24 10:21:02;;;;;;;13.53;8.87;;;3.90;69.70;;;;;;6341956;28;20198;-68
2021/12/24 10:24:12;;;;;;;11.93;7.70;;;4.10;66.20;;;;;;6346173;28;20192;-68
2021/12/24 10:27:13;;;;;;;8.63;6.80;;;4.20;66.00;;;;;;6337627;28;20287;-68
2021/12/24 10:30:14;;;;;;;11.87;7.53;;;4.40;66.50;;;;;;6350675;27;20191;-68
2021/12/24 10:33:15;;;;;;;10.10;6.87;;;4.30;65.40;;;;;;6332191;28;20204;-68
2021/12/24 10:36:16;;;;;;;18.03;7.40;;;4.40;65.90;;;;;;6325193;28;20245;-69
2021/12/24 10:39:18;;;;;;;12.73;6.97;;;4.40;65.70;;;;;;6337656;28;20179;-68
2021/12/24 10:42:37;;;;;;;9.13;5.87;;;4.40;64.30;;;;;;6346967;27;20187;-69
2021/12/24 10:45:38;;;;;;;10.43;6.07;;;4.40;65.10;;;;;;6370173;27;20236;-68
2021/12/24 10:48:58;;;;;;;8.90;6.30;;;4.50;63.70;;;;;;6357508;27;20256;-68
2021/12/24 10:52:13;;;;;;;7.13;5.20;;;4.40;65.80;;;;;;6380307;27;20195;-65
2021/12/24 10:55:18;;;;;;;11.30;5.53;;;4.40;65.10;;;;;;6330546;28;20188;-67
2021/12/24 10:58:24;;;;;;;10.53;5.87;;;4.60;64.80;;;;;;6339996;28;20201;-66
2021/12/24 11:01:25;;;;;;;10.30;5.57;;;4.70;63.90;;;;;;6328664;28;20191;-68
2021/12/24 11:04:36;;;;;;;11.00;6.73;;;4.70;63.90;;;;;;6358588;27;20209;-68
2021/12/24 11:07:42;;;;;;;9.57;5.53;;;4.80;63.30;;;;;;6327908;28;20196;-69
2021/12/24 11:10:49;;;;;;;11.67;6.20;;;4.80;63.60;;;;;;6364544;27;20268;-68
2021/12/24 11:13:50;;;;;;;8.83;5.67;;;4.90;63.60;;;;;;6341324;28;20219;-69
2021/12/24 11:16:51;;;;;;;8.83;5.33;;;5.00;63.70;;;;;;6324587;28;20238;-69
2021/12/24 11:19:52;;;;;;;12.70;6.73;;;5.10;63.20;;;;;;6329217;28;20188;-67
2021/12/24 11:23:00;;;;;;;10.33;6.80;;;5.20;62.00;;;;;;6348279;28;20210;-67
2021/12/24 11:26:06;;;;;;;10.17;6.70;;;5.30;63.20;;;;;;6379053;27;20214;-67
2021/12/24 11:29:06;;;;;;;7.20;5.20;;;5.40;62.30;;;;;;6347580;28;20195;-67
2021/12/24 11:32:07;;;;;;;9.53;6.50;;;5.70;62.10;;;;;;6342560;28;20187;-67
2021/12/24 11:35:09;;;;;;;10.53;6.67;;;5.80;62.00;;;;;;6329618;28;20199;-68
2021/12/24 11:38:17;;;;;;;9.67;6.90;;;5.90;61.50;;;;;;6350043;28;20213;-68
2021/12/24 11:41:20;;;;;;;9.47;5.73;;;6.00;59.90;;;;;;6363964;27;20217;-68
2021/12/24 11:44:21;;;;;;;9.73;5.23;;;6.10;60.00;;;;;;6380630;27;20214;-68
2021/12/24 11:47:22;;;;;;;10.60;7.27;;;6.20;60.10;;;;;;6365398;28;20190;-68
2021/12/24 11:50:24;;;;;;;7.03;4.93;;;6.20;58.90;;;;;;6345942;28;20184;-67
2021/12/24 11:53:26;;;;;;;6.80;5.80;;;6.30;58.90;;;;;;6305808;28;20208;-67
2021/12/24 11:56:26;;;;;;;19.87;7.27;;;6.30;59.00;;;;;;6306058;28;20189;-67
2021/12/24 11:59:39;;;;;;;9.73;5.77;;;6.40;59.10;;;;;;6314745;28;20222;-68
2021/12/24 12:02:45;;;;;;;7.50;5.20;;;6.50;59.10;;;;;;6326837;28;20189;-68
2021/12/24 12:05:46;;;;;;;10.13;6.13;;;6.50;59.20;;;;;;6337293;28;20198;-68
2021/12/24 12:08:48;;;;;;;7.13;4.67;;;6.60;58.80;;;;;;6369624;27;20184;-67
2021/12/24 12:11:57;;;;;;;10.50;6.40;;;6.60;59.50;;;;;;6386521;27;20272;-67
2021/12/24 12:15:24;;;;;;;9.17;5.57;;;6.80;57.50;;;;;;6335420;28;20283;-67
2021/12/24 12:18:42;;;;;;;9.93;5.50;;;6.80;58.20;;;;;;6334855;28;20187;-67
2021/12/24 12:22:16;;;;;;;11.60;5.87;;;6.70;58.90;;;;;;6334768;28;20230;-67
2021/12/24 12:25:36;;;;;;;12.60;6.03;;;6.70;58.90;;;;;;6335110;28;20195;-67
2021/12/24 12:28:37;;;;;;;12.13;6.20;;;6.60;59.20;;;;;;6309864;28;20220;-67
2021/12/24 12:31:38;;;;;;;6.70;5.47;;;6.60;59.60;;;;;;6318740;28;20196;-67
2021/12/24 12:34:39;;;;;;;8.87;6.83;;;6.70;59.80;;;;;;6316590;28;20231;-67
2021/12/24 12:37:51;;;;;;;14.97;6.93;;;6.90;59.30;;;;;;6326979;28;20181;-68
2021/12/24 12:40:53;;;;;;;10.63;6.90;;;6.90;58.10;;;;;;6332052;28;20199;-68
2021/12/24 12:43:55;;;;;;;15.30;7.37;;;7.00;59.20;;;;;;6368194;27;20232;-68
2021/12/24 12:47:10;;;;;;;9.33;6.50;;;7.00;59.00;;;;;;6325879;28;20220;-67
2021/12/24 12:50:16;;;;;;;11.10;7.57;;;7.20;59.10;;;;;;6367437;27;20192;-67
2021/12/24 12:53:31;;;;;;;10.23;6.60;;;7.30;57.10;;;;;;6327355;28;20205;-67
2021/12/24 12:56:31;;;;;;;11.77;5.50;;;7.40;57.40;;;;;;6356940;27;20194;-68
2021/12/24 12:59:33;;;;;;;10.77;6.47;;;7.40;57.30;;;;;;6342875;28;20192;-68
2021/12/24 13:06:08;;;;;;;13.30;6.57;;;7.50;56.40;;;;;;6355956;27;20192;-68
2021/12/24 13:09:12;;;;;;;11.80;5.93;;;7.60;57.10;;;;;;6385037;27;20210;-67
2021/12/24 13:12:16;;;;;;;9.20;5.67;;;7.50;57.80;;;;;;6359769;27;20232;-67
2021/12/24 13:15:16;;;;;;;11.27;7.23;;;7.60;57.00;;;;;;6318290;28;20257;-68
2021/12/24 13:18:34;;;;;;;10.80;5.80;;;7.60;57.70;;;;;;6343191;27;20646;-68
2021/12/24 13:24:55;;;;;;;13.77;8.20;;;7.50;58.20;;;;;;6327394;28;20189;-67
2021/12/24 13:27:58;;;;;;;9.67;7.33;;;7.50;58.30;;;;;;6325653;28;20185;-67
2021/12/24 13:31:13;;;;;;;10.13;7.10;;;7.50;58.70;;;;;;6347797;27;20204;-68
2021/12/24 13:34:16;;;;;;;16.97;8.93;;;7.50;59.00;;;;;;6350792;27;20212;-68
2021/12/24 13:37:17;;;;;;;12.50;7.03;;;7.50;58.90;;;;;;6334326;28;20238;-68
2021/12/24 13:40:21;;;;;;;12.83;7.20;;;7.40;59.30;;;;;;6323898;28;20230;-68
2021/12/24 13:43:24;;;;;;;12.87;6.93;;;7.30;59.90;;;;;;6335458;28;20676;-68
2021/12/24 13:46:27;;;;;;;13.10;7.57;;;7.30;60.00;;;;;;6352507;27;20187;-68
2021/12/24 13:56:11;;;;;;;11.03;7.00;;;7.00;60.50;;;;;;6366849;27;20710;-68
2021/12/24 13:59:14;;;;;;;14.30;7.73;;;6.90;61.10;;;;;;6345798;27;20195;-68
2021/12/24 14:02:15;;;;;;;13.83;8.03;;;7.00;60.90;;;;;;6328054;28;20196;-68
2021/12/24 14:05:18;;;;;;;11.40;7.43;;;7.00;61.30;;;;;;6326030;28;20184;-68
2021/12/24 14:08:22;;;;;;;9.97;6.87;;;6.80;61.60;;;;;;6349130;27;20184;-69
2021/12/24 14:11:30;;;;;;;16.03;8.33;;;6.80;61.00;;;;;;6365969;27;20238;-70
2021/12/24 14:14:44;;;;;;;11.90;6.90;;;6.70;61.60;;;;;;6324351;28;20212;-70
2021/12/24 14:18:19;;;;;;;14.27;7.43;;;6.60;61.90;;;;;;6329610;28;20227;-70
2021/12/24 14:24:36;;;;;;;19.10;7.50;;;6.40;62.80;;;;;;6366097;27;20195;-70
2021/12/24 14:27:39;;;;;;;19.67;9.20;;;6.30;62.60;;;;;;6332361;28;20195;-70
2021/12/24 14:30:40;;;;;;;13.93;8.27;;;6.30;62.50;;;;;;6315157;28;20188;-70
2021/12/24 14:33:46;;;;;;;14.00;7.27;;;6.10;64.00;;;;;;6340245;28;20218;-70
2021/12/24 14:37:09;;;;;;;14.33;7.80;;;6.00;64.60;;;;;;6361002;27;20268;-70
2021/12/24 14:40:12;;;;;;;12.73;7.60;;;5.90;64.80;;;;;;6361342;27;20210;-70
2021/12/24 14:43:16;;;;;;;14.27;8.67;;;5.90;64.50;;;;;;6337279;28;20282;-70
2021/12/24 14:46:17;;;;;;;13.53;7.70;;;5.80;64.50;;;;;;6367828;27;20282;-70
2021/12/24 14:49:17;;;;;;;11.73;7.37;;;5.70;65.00;;;;;;6338742;28;20202;-70
2021/12/24 14:52:20;;;;;;;12.43;8.00;;;5.60;65.30;;;;;;6347924;27;20290;-70
2021/12/24 14:55:23;;;;;;;12.53;7.90;;;5.50;65.40;;;;;;6345263;28;20203;-70
2021/12/24 14:58:37;;;;;;;18.87;10.30;;;5.40;65.70;;;;;;6380140;27;20275;-70
2021/12/24 15:01:42;;;;;;;15.60;8.90;;;5.30;66.00;;;;;;6359088;28;20195;-70
2021/12/24 15:04:43;;;;;;;13.63;8.00;;;5.30;66.30;;;;;;6362830;27;20230;-70
2021/12/24 15:07:44;;;;;;;13.80;8.23;;;5.30;66.10;;;;;;6327887;28;20187;-69
2021/12/24 15:11:14;;;;;;;17.17;8.87;;;5.20;66.10;;;;;;6377119;27;20697;-70
2021/12/24 15:14:17;;;;;;;13.50;8.33;;;5.20;66.10;;;;;;6340531;28;20213;-70
2021/12/24 15:17:17;;;;;;;17.73;9.07;;;5.10;65.90;;;;;;6333176;28;20196;-70
2021/12/24 15:20:20;;;;;;;15.07;9.00;;;5.10;66.30;;;;;;6338710;28;20243;-70
2021/12/24 15:23:21;;;;;;;18.40;10.10;;;4.90;66.80;;;;;;6337409;28;20244;-69
2021/12/24 15:26:24;;;;;;;12.87;7.70;;;4.90;67.30;;;;;;6330605;28;20226;-70
2021/12/24 15:29:25;;;;;;;13.13;7.80;;;4.80;67.50;;;;;;6358097;28;20274;-70
2021/12/24 15:32:26;;;;;;;14.00;7.83;;;4.80;67.30;;;;;;6343324;28;20255;-70
2021/12/24 15:35:26;;;;;;;12.63;7.43;;;4.80;67.20;;;;;;6365006;27;20225;-70
2021/12/24 15:38:27;;;;;;;11.13;7.67;;;4.80;67.40;;;;;;6358840;27;20203;-70
2021/12/24 15:41:28;;;;;;;12.67;7.83;;;4.80;67.40;;;;;;6342066;28;20207;-70
2021/12/24 15:44:29;;;;;;;13.83;7.83;;;4.70;67.20;;;;;;6362507;27;20383;-70
2021/12/24 15:47:30;;;;;;;10.70;7.13;;;4.60;67.50;;;;;;6356137;27;20207;-70
2021/12/24 15:50:31;;;;;;;11.03;7.43;;;4.60;67.80;;;;;;6329399;28;20740;-70
2021/12/24 15:53:33;;;;;;;9.70;7.27;;;4.60;67.60;;;;;;6324758;28;20222;-70
2021/12/24 15:56:34;;;;;;;16.47;8.83;;;4.50;67.60;;;;;;6339049;28;20249;-70
2021/12/24 15:59:36;;;;;;;13.07;8.37;;;4.50;68.10;;;;;;6341304;28;20234;-70
2021/12/24 16:02:37;;;;;;;13.50;9.13;;;4.40;68.40;;;;;;6306783;28;20271;-71
2021/12/24 16:05:39;;;;;;;11.60;6.67;;;4.30;68.80;;;;;;6324659;28;20201;-70
2021/12/24 16:08:39;;;;;;;13.57;8.03;;;4.30;68.60;;;;;;6350616;27;20203;-70
2021/12/24 16:11:40;;;;;;;15.73;9.00;;;4.30;68.20;;;;;;6299103;28;20231;-71
2021/12/24 16:14:43;;;;;;;15.00;8.50;;;4.20;68.90;;;;;;6335388;28;20207;-70
2021/12/24 16:17:44;;;;;;;8.47;7.07;;;4.20;69.60;;;;;;6352412;28;20203;-69
2021/12/24 16:20:45;;;;;;;12.47;7.50;;;4.20;69.30;;;;;;6354158;27;20187;-69
2021/12/24 16:23:46;;;;;;;11.77;7.50;;;4.20;68.90;;;;;;6336318;28;20231;-70
2021/12/24 16:26:47;;;;;;;12.27;7.73;;;4.10;69.30;;;;;;6347142;27;20194;-70
2021/12/24 16:29:49;;;;;;;16.50;8.10;;;4.10;69.40;;;;;;6361532;27;20188;-70
2021/12/24 16:32:50;;;;;;;16.80;8.03;;;4.10;69.30;;;;;;6375356;27;20207;-69
2021/12/24 16:35:51;;;;;;;11.90;7.37;;;4.00;69.60;;;;;;6355919;27;20215;-69
2021/12/24 16:38:52;;;;;;;10.53;8.00;;;3.90;70.00;;;;;;6331087;28;20217;-70
2021/12/24 16:41:53;;;;;;;17.30;8.40;;;3.80;70.50;;;;;;6331825;28;20191;-70
2021/12/24 16:44:54;;;;;;;13.40;8.43;;;3.80;70.60;;;;;;6356786;27;20205;-69
2021/12/24 16:47:56;;;;;;;11.97;7.93;;;3.80;71.00;;;;;;6326977;28;20198;-69
2021/12/24 16:50:57;;;;;;;12.67;6.50;;;3.80;71.20;;;;;;6354310;27;20190;-70
2021/12/24 16:53:58;;;;;;;11.27;8.17;;;3.70;71.30;;;;;;6364384;27;20745;-69
2021/12/24 16:56:59;;;;;;;11.73;6.93;;;3.80;70.90;;;;;;6337583;28;20187;-69
2021/12/24 17:00:00;;;;;;;10.60;7.57;;;3.80;70.90;;;;;;6361386;27;20222;-70
2021/12/24 17:03:02;;;;;;;10.63;6.47;;;3.70;70.80;;;;;;6356214;27;20202;-69
2021/12/24 17:06:02;;;;;;;12.93;7.23;;;3.60;71.00;;;;;;6358665;27;20222;-69
2021/12/24 17:09:03;;;;;;;14.73;7.93;;;3.60;71.20;;;;;;6331062;28;20224;-69
2021/12/24 17:12:05;;;;;;;10.77;7.10;;;3.60;71.10;;;;;;6344931;27;20238;-69
2021/12/24 17:15:07;;;;;;;11.17;7.80;;;3.60;71.10;;;;;;6343152;28;20223;-69
2021/12/24 17:18:08;;;;;;;15.57;7.73;;;3.70;71.30;;;;;;6362297;27;20193;-69
2021/12/24 17:21:09;;;;;;;7.57;4.90;;;3.60;71.20;;;;;;6341827;28;20185;-69
2021/12/24 17:24:09;;;;;;;9.03;5.37;;;3.60;71.30;;;;;;6355982;27;20319;-69
2021/12/24 17:27:10;;;;;;;6.10;4.23;;;3.70;70.90;;;;;;6327433;28;20204;-69
2021/12/24 17:30:14;;;;;;;11.80;6.53;;;3.70;70.90;;;;;;6306784;28;20199;-69